Time;durP1;ratioP1;P1;durP2;ratioP2;P2;SDS_P1;SDS_P2;PMS_P1;PMS_P2;Temp;Humidity;BMP_temperature;BMP_pressure;BME280_temperature;BME280_humidity;BME280_pressure;Samples;Min_cycle;Max_cycle;Signal;HPM_P1;HPM_P2
2024/03/29 00:01:24;;;;;;;7.57;0.90;;;;;;;24.62;31.53;96062.50;7391063;19;20015;-57
2024/03/29 00:03:53;;;;;;;0.30;0.10;;;;;;;25.33;31.35;96077.50;7391788;19;20007;-57
2024/03/29 00:06:19;;;;;;;0.20;0.20;;;;;;;25.18;31.08;96089.13;7391011;19;20044;-57
2024/03/29 00:08:45;;;;;;;0.70;0.70;;;;;;;25.09;31.21;96082.47;7390551;19;20010;-57
2024/03/29 00:11:11;;;;;;;1.00;0.50;;;;;;;24.41;31.99;96103.03;7394024;19;20017;-57
2024/03/29 00:13:37;;;;;;;4.35;0.82;;;;;;;24.23;31.81;96106.03;7393471;19;20011;-57
2024/03/29 00:16:04;;;;;;;0.45;0.45;;;;;;;23.45;32.91;96101.16;7398781;19;20021;-57
2024/03/29 00:18:30;;;;;;;0.40;0.28;;;;;;;23.66;32.41;96106.16;7400042;19;20070;-57
2024/03/29 00:20:56;;;;;;;0.40;0.38;;;;;;;23.22;33.14;96107.34;7397510;19;20379;-57
2024/03/29 00:23:22;;;;;;;7.22;1.65;;;;;;;24.52;31.69;96114.09;7401492;19;20339;-57
2024/03/29 00:25:48;;;;;;;0.30;0.30;;;;;;;24.63;31.64;96127.28;7397138;19;20018;-57
2024/03/29 00:28:14;;;;;;;3.03;0.40;;;;;;;24.46;32.20;96133.09;7399391;19;20010;-57
2024/03/29 00:30:40;;;;;;;0.98;0.98;;;;;;;25.03;31.40;96139.25;7398526;19;20324;-57
2024/03/29 00:33:07;;;;;;;1.27;0.90;;;;;;;25.21;31.35;96144.78;7397951;19;20463;-57
2024/03/29 00:35:33;;;;;;;0.32;0.28;;;;;;;25.19;31.52;96148.25;7401189;19;20019;-57
2024/03/29 00:38:00;;;;;;;28.80;1.02;;;;;;;25.26;30.90;96152.75;7398372;19;20021;-57
2024/03/29 00:40:26;;;;;;;3.22;1.27;;;;;;;25.32;31.07;96155.78;7397991;19;20010;-57
2024/03/29 00:42:52;;;;;;;0.40;0.40;;;;;;;24.82;31.57;96163.50;7399086;19;20457;-57
2024/03/29 00:45:18;;;;;;;0.75;0.60;;;;;;;25.47;31.08;96160.53;7397765;19;20014;-57
2024/03/29 00:47:44;;;;;;;0.30;0.30;;;;;;;24.97;31.36;96167.50;7401134;19;20471;-57
2024/03/29 00:50:10;;;;;;;0.40;0.40;;;;;;;25.25;30.81;96168.38;7401120;19;20010;-57
2024/03/29 00:52:36;;;;;;;3.22;0.60;;;;;;;25.25;30.85;96173.38;7398699;19;20025;-58
2024/03/29 00:55:03;;;;;;;0.20;0.20;;;;;;;25.40;30.86;96184.50;7399041;19;20014;-58
2024/03/29 00:57:29;;;;;;;0.43;0.35;;;;;;;26.01;30.19;96187.03;7397745;19;20015;-58
2024/03/29 00:59:56;;;;;;;0.38;0.32;;;;;;;25.75;30.35;96182.72;7398407;19;20011;-58
2024/03/29 01:02:23;;;;;;;0.28;0.28;;;;;;;25.39;30.80;96200.16;7398546;19;20025;-58
2024/03/29 01:04:50;;;;;;;0.52;0.52;;;;;;;24.35;31.38;96202.41;7397804;19;20014;-58
2024/03/29 01:07:17;;;;;;;0.55;0.55;;;;;;;24.19;31.84;96201.84;7394508;19;20386;-58
2024/03/29 01:09:43;;;;;;;0.30;0.30;;;;;;;24.35;31.53;96216.63;7397088;19;20014;-58
2024/03/29 01:12:10;;;;;;;0.20;0.20;;;;;;;23.53;32.42;96217.16;7400191;19;20480;-57
2024/03/29 01:14:37;;;;;;;0.20;0.20;;;;;;;24.15;31.66;96218.78;7396672;19;20325;-58
2024/03/29 01:17:04;;;;;;;0.30;0.30;;;;;;;24.56;31.47;96215.94;7396836;19;20018;-58
2024/03/29 01:19:30;;;;;;;0.80;0.50;;;;;;;24.23;31.84;96230.44;7399796;19;20037;-57
2024/03/29 01:21:56;;;;;;;0.40;0.40;;;;;;;24.19;31.45;96236.69;7399540;19;20010;-58
2024/03/29 01:24:23;;;;;;;4.05;0.70;;;;;;;24.41;31.22;96234.63;7395883;19;20033;-58
2024/03/29 01:26:49;;;;;;;0.20;0.20;;;;;;;24.68;30.95;96236.25;7395012;19;20363;-57
2024/03/29 01:29:15;;;;;;;10.52;1.02;;;;;;;25.00;30.84;96245.91;7396356;19;20014;-58
2024/03/29 01:31:41;;;;;;;0.55;0.55;;;;;;;25.16;30.80;96243.59;7394127;19;20011;-57
2024/03/29 01:34:07;;;;;;;0.60;0.60;;;;;;;24.91;30.72;96255.56;7399681;19;20007;-57
2024/03/29 01:36:33;;;;;;;0.50;0.50;;;;;;;25.12;30.56;96254.84;7397109;19;20347;-57
2024/03/29 01:39:00;;;;;;;0.47;0.47;;;;;;;24.84;31.14;96253.91;7396514;19;20019;-57
2024/03/29 01:41:29;;;;;;;0.40;0.40;;;;;;;24.84;30.77;96256.75;7396503;19;20010;-57
2024/03/29 01:43:55;;;;;;;0.50;0.50;;;;;;;24.82;30.64;96260.25;7396119;19;20010;-57
2024/03/29 01:46:23;;;;;;;1.38;0.65;;;;;;;24.83;30.80;96261.00;7398806;19;20083;-57
2024/03/29 01:48:53;;;;;;;0.40;0.40;;;;;;;24.16;31.19;96272.13;7397166;19;20014;-57
2024/03/29 01:51:23;;;;;;;0.35;0.30;;;;;;;24.03;31.63;96273.78;7396086;19;20013;-57
2024/03/29 01:53:53;;;;;;;0.55;0.40;;;;;;;23.76;31.43;96281.94;7395035;19;20595;-57
2024/03/29 01:56:22;;;;;;;25.38;1.25;;;;;;;23.50;31.99;96273.16;7397353;19;20014;-57
2024/03/29 01:58:55;;;;;;;0.20;0.20;;;;;;;23.11;32.10;96278.66;7399658;19;20022;-57
2024/03/29 02:01:21;;;;;;;0.90;0.90;;;;;;;22.89;32.17;96286.28;7395866;19;20011;-57
2024/03/29 02:03:48;;;;;;;1.10;0.52;;;;;;;22.60;32.36;96295.69;7394640;19;20018;-57
2024/03/29 02:06:14;;;;;;;0.40;0.20;;;;;;;22.29;32.75;96295.72;7393990;19;20043;-57
2024/03/29 02:08:40;;;;;;;0.88;0.22;;;;;;;23.02;32.11;96288.94;7396111;19;20015;-57
2024/03/29 02:11:07;;;;;;;0.47;0.47;;;;;;;22.23;32.61;96299.03;7395165;19;20018;-57
2024/03/29 02:13:33;;;;;;;0.30;0.30;;;;;;;23.74;31.54;96285.44;7396098;19;20014;-57
2024/03/29 02:15:59;;;;;;;5.15;0.55;;;;;;;23.16;31.76;96291.63;7394934;19;20006;-57
2024/03/29 02:18:25;;;;;;;0.50;0.50;;;;;;;22.23;32.32;96295.44;7397199;19;20038;-57
2024/03/29 02:20:52;;;;;;;0.30;0.30;;;;;;;20.90;34.13;96304.03;7394455;19;20349;-57
2024/03/29 02:23:21;;;;;;;0.30;0.30;;;;;;;20.55;34.43;96306.53;7394844;19;20058;-57
2024/03/29 02:25:47;;;;;;;0.60;0.60;;;;;;;21.33;33.85;96312.50;7394171;19;20477;-57
2024/03/29 02:28:14;;;;;;;0.47;0.47;;;;;;;21.95;32.66;96309.09;7396808;19;20475;-57
2024/03/29 02:30:40;;;;;;;1.17;1.05;;;;;;;22.47;32.20;96319.94;7397410;19;20474;-57
2024/03/29 02:33:06;;;;;;;0.68;0.68;;;;;;;22.02;32.59;96316.50;7393540;19;20744;-57
2024/03/29 02:35:32;;;;;;;0.73;0.73;;;;;;;23.76;31.10;96319.63;7394007;19;20099;-57
2024/03/29 02:37:58;;;;;;;1.17;0.63;;;;;;;22.70;31.92;96333.00;7394900;19;20022;-57
2024/03/29 02:40:24;;;;;;;0.40;0.40;;;;;;;22.74;31.58;96338.13;7394115;19;20467;-57
2024/03/29 02:42:50;;;;;;;0.30;0.30;;;;;;;22.34;32.25;96337.06;7394758;19;20021;-57
2024/03/29 02:45:17;;;;;;;0.20;0.20;;;;;;;23.34;31.49;96329.31;7394527;19;20033;-57
2024/03/29 02:47:43;;;;;;;0.95;0.63;;;;;;;22.83;32.15;96332.13;7395501;19;20017;-57
2024/03/29 02:50:10;;;;;;;0.40;0.40;;;;;;;23.06;31.81;96330.97;7397005;19;20011;-57
2024/03/29 02:52:37;;;;;;;0.65;0.38;;;;;;;21.98;32.60;96324.81;7391329;19;20038;-57
2024/03/29 02:55:03;;;;;;;0.45;0.45;;;;;;;23.11;31.86;96336.16;7394297;19;20010;-57
2024/03/29 02:57:29;;;;;;;0.35;0.35;;;;;;;23.25;31.23;96321.81;7394466;19;20017;-57
2024/03/29 02:59:56;;;;;;;31.08;2.55;;;;;;;22.36;32.21;96332.22;7395454;19;20010;-57
2024/03/29 03:02:22;;;;;;;0.10;0.10;;;;;;;22.21;32.39;96332.94;7393117;19;20010;-57
2024/03/29 03:04:48;;;;;;;0.50;0.20;;;;;;;22.37;32.52;96335.78;7393383;19;20474;-57
2024/03/29 03:12:44;;;;;;;0.40;0.40;;;;;;;22.35;32.54;96332.84;7392152;19;20014;-57
2024/03/29 03:15:10;;;;;;;0.60;0.60;;;;;;;23.05;31.79;96338.03;7396105;19;20015;-57
2024/03/29 03:17:36;;;;;;;0.43;0.32;;;;;;;23.41;31.27;96336.72;7393913;19;20474;-57
2024/03/29 03:20:06;;;;;;;4.55;0.50;;;;;;;23.67;31.14;96332.06;7393557;19;20359;-57
2024/03/29 03:22:32;;;;;;;0.40;0.40;;;;;;;20.92;33.70;96335.25;7393605;19;20470;-57
2024/03/29 03:24:58;;;;;;;0.20;0.20;;;;;;;21.26;33.12;96338.34;7393592;19;20051;-57
2024/03/29 03:27:24;;;;;;;0.43;0.43;;;;;;;21.05;33.60;96337.34;7391987;19;20011;-57
2024/03/29 03:29:51;;;;;;;0.70;0.70;;;;;;;21.51;32.89;96343.78;7392771;19;20051;-57
2024/03/29 03:32:17;;;;;;;0.85;0.60;;;;;;;21.59;32.41;96336.41;7392492;19;20018;-57
2024/03/29 03:34:43;;;;;;;0.50;0.50;;;;;;;21.33;32.89;96331.63;7392689;19;20478;-57
2024/03/29 03:37:09;;;;;;;0.43;0.43;;;;;;;20.82;33.18;96337.56;7392058;19;20026;-57
2024/03/29 03:39:36;;;;;;;2.75;0.95;;;;;;;20.46;33.63;96340.66;7392249;19;20018;-57
2024/03/29 03:42:02;;;;;;;0.43;0.43;;;;;;;19.94;33.75;96344.22;7392517;19;20010;-57
2024/03/29 03:44:28;;;;;;;0.40;0.40;;;;;;;18.11;36.36;96360.47;7395177;19;20028;-57
2024/03/29 03:46:55;;;;;;;0.30;0.30;;;;;;;18.07;36.22;96359.47;7391697;19;20017;-57
2024/03/29 03:49:21;;;;;;;1.85;0.98;;;;;;;19.19;34.72;96342.88;7398636;19;20074;-57
2024/03/29 03:51:47;;;;;;;0.40;0.40;;;;;;;19.43;34.50;96349.19;7399724;19;20010;-57
2024/03/29 03:54:13;;;;;;;0.55;0.55;;;;;;;20.32;33.94;96349.09;7399906;19;20010;-57
2024/03/29 03:56:40;;;;;;;0.70;0.70;;;;;;;21.14;32.47;96350.53;7400384;19;20459;-57
2024/03/29 03:59:06;;;;;;;0.50;0.50;;;;;;;21.02;32.86;96349.91;7398110;19;20030;-57
2024/03/29 04:01:32;;;;;;;0.43;0.43;;;;;;;21.59;32.03;96350.56;7398391;19;20498;-57
2024/03/29 04:03:58;;;;;;;1.33;0.60;;;;;;;21.75;31.62;96350.59;7398403;19;20025;-57
2024/03/29 04:06:24;;;;;;;0.38;0.38;;;;;;;22.02;31.50;96342.00;7398304;19;20029;-57
2024/03/29 04:08:50;;;;;;;5.22;0.50;;;;;;;22.23;31.12;96344.38;7397434;19;20019;-57
2024/03/29 04:11:16;;;;;;;0.20;0.20;;;;;;;22.90;30.39;96344.47;7397217;19;20019;-57
2024/03/29 04:13:42;;;;;;;1.52;0.70;;;;;;;22.87;30.57;96351.47;7399018;19;20010;-57
2024/03/29 04:16:09;;;;;;;1.00;0.90;;;;;;;21.39;31.57;96363.03;7399178;19;20028;-57
2024/03/29 04:18:35;;;;;;;1.08;0.65;;;;;;;22.25;30.75;96361.47;7398891;19;20010;-57
2024/03/29 04:21:03;;;;;;;0.50;0.50;;;;;;;23.21;29.91;96364.25;7398839;19;20562;-57
2024/03/29 04:23:29;;;;;;;0.63;0.63;;;;;;;24.58;28.63;96355.44;7399172;19;20015;-57
2024/03/29 04:25:59;;;;;;;0.70;0.70;;;;;;;22.50;30.70;96361.19;7397539;19;20767;-57
2024/03/29 04:28:26;;;;;;;0.30;0.30;;;;;;;22.97;29.93;96361.13;7397876;19;20063;-59
2024/03/29 04:30:56;;;;;;;0.40;0.40;;;;;;;22.48;29.99;96363.22;7399400;19;20011;-57
2024/03/29 04:33:23;;;;;;;0.60;0.60;;;;;;;22.14;30.56;96364.47;7399399;19;20034;-57
2024/03/29 04:35:57;;;;;;;0.57;0.57;;;;;;;21.85;31.02;96368.84;7398697;19;20011;-57
2024/03/29 04:38:24;;;;;;;0.50;0.50;;;;;;;21.91;30.54;96376.91;7399561;19;20013;-57
2024/03/29 04:40:51;;;;;;;0.20;0.20;;;;;;;22.06;30.58;96381.13;7397813;19;20039;-57
2024/03/29 04:43:18;;;;;;;0.22;0.22;;;;;;;21.22;31.24;96383.44;7397709;19;20070;-57
2024/03/29 04:45:44;;;;;;;1.75;0.70;;;;;;;22.08;30.59;96387.63;7397914;19;20006;-57
2024/03/29 04:48:11;;;;;;;0.47;0.47;;;;;;;21.34;31.40;96389.69;7397584;19;20014;-57
2024/03/29 04:50:38;;;;;;;0.75;0.65;;;;;;;20.79;32.12;96392.56;7401923;19;20467;-57
2024/03/29 04:53:04;;;;;;;0.13;0.13;;;;;;;20.62;32.38;96398.03;7398170;19;20016;-57
2024/03/29 04:55:31;;;;;;;0.30;0.25;;;;;;;21.02;32.36;96395.19;7398149;19;20037;-57
2024/03/29 04:57:57;;;;;;;0.25;0.25;;;;;;;20.38;32.60;96397.47;7402017;19;20018;-57
2024/03/29 05:00:23;;;;;;;0.40;0.40;;;;;;;20.95;32.18;96390.56;7397164;19;20014;-57
2024/03/29 05:02:49;;;;;;;0.30;0.30;;;;;;;21.54;31.67;96390.66;7397096;19;20011;-57
2024/03/29 05:05:15;;;;;;;0.28;0.22;;;;;;;21.65;31.43;96392.63;7397706;19;20059;-57
2024/03/29 05:07:41;;;;;;;0.30;0.30;;;;;;;20.51;32.68;96401.69;7397451;19;20006;-57
2024/03/29 05:10:09;;;;;;;0.30;0.30;;;;;;;22.39;31.09;96398.97;7397765;19;20033;-57
2024/03/29 05:12:36;;;;;;;0.60;0.60;;;;;;;21.21;32.25;96398.94;7397423;19;20007;-57
2024/03/29 05:15:02;;;;;;;1.00;1.00;;;;;;;20.57;32.95;96402.75;7397157;19;20007;-57
2024/03/29 05:17:28;;;;;;;0.60;0.52;;;;;;;20.48;33.28;96392.38;7397510;19;20010;-58
2024/03/29 05:19:55;;;;;;;0.60;0.60;;;;;;;20.40;33.19;96394.75;7396503;19;20044;-57
2024/03/29 05:22:22;;;;;;;0.75;0.75;;;;;;;18.09;36.13;96396.94;7396380;19;20074;-57
2024/03/29 05:24:49;;;;;;;1.27;0.57;;;;;;;19.89;34.56;96399.75;7399769;19;20341;-57
2024/03/29 05:27:16;;;;;;;0.30;0.30;;;;;;;20.09;34.61;96392.41;7397756;19;20370;-57
2024/03/29 05:29:42;;;;;;;0.40;0.40;;;;;;;21.18;33.39;96397.38;7397236;19;20022;-57
2024/03/29 05:32:08;;;;;;;1.65;0.75;;;;;;;21.32;33.39;96392.41;7396311;19;20015;-57
2024/03/29 05:34:34;;;;;;;0.10;0.10;;;;;;;21.16;33.46;96394.44;7396995;19;20070;-57
2024/03/29 05:37:00;;;;;;;0.95;0.95;;;;;;;21.12;32.99;96387.22;7395562;19;20010;-57
2024/03/29 05:39:26;;;;;;;0.17;0.15;;;;;;;21.13;33.33;96388.69;7395536;19;20347;-57
2024/03/29 05:41:53;;;;;;;0.82;0.80;;;;;;;20.85;33.52;96392.91;7396218;19;20014;-57
2024/03/29 05:44:19;;;;;;;2.05;0.70;;;;;;;20.76;33.58;96396.66;7396872;19;20014;-58
2024/03/29 05:46:45;;;;;;;0.10;0.10;;;;;;;21.33;32.71;96393.88;7394812;19;20007;-57
2024/03/29 05:49:11;;;;;;;3.22;1.05;;;;;;;20.39;33.44;96398.94;7396755;19;20029;-57
2024/03/29 05:51:37;;;;;;;1.02;0.80;;;;;;;20.22;33.71;96397.38;7395888;19;20234;-58
2024/03/29 05:54:03;;;;;;;1.35;0.73;;;;;;;20.74;33.24;96399.38;7395785;19;20030;-57
2024/03/29 05:56:30;;;;;;;0.10;0.10;;;;;;;19.55;34.61;96401.41;7397078;19;20073;-57
2024/03/29 05:58:56;;;;;;;0.82;0.82;;;;;;;19.75;34.26;96406.72;7395753;19;20010;-57
2024/03/29 06:01:26;;;;;;;0.28;0.28;;;;;;;19.82;34.44;96408.50;7395299;19;20010;-57
2024/03/29 06:03:54;;;;;;;2.50;0.30;;;;;;;19.53;34.99;96404.09;7394520;19;20021;-57
2024/03/29 06:06:24;;;;;;;2.30;0.43;;;;;;;20.82;33.42;96399.06;7392622;19;20367;-57
2024/03/29 06:08:51;;;;;;;0.45;0.45;;;;;;;21.35;32.92;96402.47;7399054;19;20355;-57
2024/03/29 06:11:17;;;;;;;0.38;0.38;;;;;;;21.00;32.84;96402.81;7396474;19;20437;-57
2024/03/29 06:19:05;;;;;;;4.40;0.98;;;;;;;20.71;33.91;96394.25;7397645;19;20013;-57
2024/03/29 06:21:40;;;;;;;0.45;0.45;;;;;;;20.85;34.42;96397.81;7397364;19;20021;-57
2024/03/29 06:24:08;;;;;;;0.85;0.85;;;;;;;21.42;33.35;96401.41;7398527;19;20348;-58
2024/03/29 06:26:34;;;;;;;0.80;0.80;;;;;;;22.18;32.88;96404.34;7395508;19;20021;-57
2024/03/29 06:29:01;;;;;;;0.43;0.30;;;;;;;21.62;33.47;96396.72;7397795;19;20034;-57
2024/03/29 06:31:27;;;;;;;1.75;0.60;;;;;;;22.05;33.53;96402.31;7398279;19;20042;-57
2024/03/29 06:33:54;;;;;;;0.50;0.50;;;;;;;22.93;32.86;96400.69;7398282;19;20006;-57
2024/03/29 06:36:20;;;;;;;0.68;0.50;;;;;;;22.78;33.06;96401.44;7397133;19;20039;-57
2024/03/29 06:38:46;;;;;;;1.65;0.60;;;;;;;22.72;33.54;96408.97;7397350;19;20010;-57
2024/03/29 06:41:12;;;;;;;2.03;0.90;;;;;;;22.63;33.42;96412.81;7394483;19;20062;-57
2024/03/29 06:43:43;;;;;;;1.65;0.50;;;;;;;22.10;34.23;96418.16;7394408;19;20070;-57
2024/03/29 06:46:10;;;;;;;0.30;0.30;;;;;;;22.27;34.65;96412.59;7393108;19;20367;-57
2024/03/29 06:48:36;;;;;;;0.77;0.50;;;;;;;22.33;34.28;96412.88;7395075;19;20468;-57
2024/03/29 06:51:03;;;;;;;1.08;0.80;;;;;;;22.67;34.00;96401.63;7396061;19;20483;-57
2024/03/29 06:53:30;;;;;;;1.13;0.47;;;;;;;22.22;34.65;96405.25;7397296;19;20086;-57
2024/03/29 06:55:56;;;;;;;2.33;0.57;;;;;;;23.09;34.29;96400.63;7397312;19;20003;-57
2024/03/29 06:58:23;;;;;;;0.35;0.35;;;;;;;24.80;32.03;96393.97;7397192;19;20041;-57
2024/03/29 07:00:50;;;;;;;0.82;0.82;;;;;;;25.71;31.18;96399.25;7391981;19;20021;-58
2024/03/29 07:03:19;;;;;;;1.52;0.90;;;;;;;24.90;32.27;96395.72;7394163;19;20074;-57
2024/03/29 07:05:46;;;;;;;5.38;1.25;;;;;;;23.86;33.18;96393.19;7393824;19;20037;-58
2024/03/29 07:08:12;;;;;;;1.30;0.88;;;;;;;23.73;33.51;96409.03;7394690;19;20034;-57
2024/03/29 07:10:38;;;;;;;0.70;0.70;;;;;;;24.17;33.12;96389.44;7393202;19;20066;-57
2024/03/29 07:13:06;;;;;;;1.05;1.05;;;;;;;24.29;32.90;96402.00;7393161;19;20017;-57
2024/03/29 07:15:33;;;;;;;11.68;1.05;;;;;;;23.33;34.47;96407.38;7393262;19;20014;-57
2024/03/29 07:18:00;;;;;;;0.28;0.28;;;;;;;22.85;34.92;96402.44;7392659;19;20470;-58
2024/03/29 07:20:26;;;;;;;0.20;0.20;;;;;;;22.97;35.16;96411.47;7395203;19;20014;-58
2024/03/29 07:22:53;;;;;;;2.38;0.73;;;;;;;23.21;34.72;96412.53;7393066;19;20062;-58
2024/03/29 07:25:19;;;;;;;0.30;0.30;;;;;;;22.96;35.11;96412.84;7396562;19;20027;-58
2024/03/29 07:27:45;;;;;;;0.20;0.20;;;;;;;22.86;35.26;96407.47;7396549;19;20459;-57
2024/03/29 07:30:12;;;;;;;1.10;0.52;;;;;;;25.40;32.95;96406.72;7396335;19;20014;-58
2024/03/29 07:32:38;;;;;;;0.77;0.77;;;;;;;24.32;33.79;96408.50;7392536;19;20011;-57
2024/03/29 07:35:05;;;;;;;0.80;0.80;;;;;;;23.60;34.55;96417.72;7392799;19;20021;-57
2024/03/29 07:37:31;;;;;;;0.20;0.20;;;;;;;22.91;35.63;96414.78;7396408;19;20013;-57
2024/03/29 07:39:57;;;;;;;1.38;0.85;;;;;;;21.97;36.93;96422.53;7390494;19;20026;-57
2024/03/29 07:42:24;;;;;;;0.88;0.85;;;;;;;21.97;37.07;96416.13;7394218;19;20014;-57
2024/03/29 07:44:50;;;;;;;0.30;0.30;;;;;;;21.68;37.21;96416.81;7396355;19;20018;-57
2024/03/29 07:47:17;;;;;;;0.50;0.50;;;;;;;21.71;37.36;96424.81;7394690;19;20018;-57
2024/03/29 07:49:43;;;;;;;1.10;0.93;;;;;;;21.67;37.60;96432.38;7395022;19;20014;-57
2024/03/29 07:52:09;;;;;;;0.75;0.75;;;;;;;22.41;36.99;96433.09;7395711;19;20034;-57
2024/03/29 07:54:35;;;;;;;1.75;1.20;;;;;;;22.66;37.17;96429.28;7395287;19;20035;-57
2024/03/29 07:57:01;;;;;;;3.17;0.57;;;;;;;22.71;37.91;96435.84;7394637;19;20014;-57
2024/03/29 07:59:28;;;;;;;1.17;0.40;;;;;;;23.75;36.29;96437.53;7391736;19;20023;-57
2024/03/29 08:01:58;;;;;;;1.58;0.98;;;;;;;24.77;35.37;96437.25;7394430;19;20010;-57
2024/03/29 08:04:24;;;;;;;0.40;0.40;;;;;;;25.02;35.37;96436.75;7391570;19;20007;-57
2024/03/29 08:06:52;;;;;;;0.68;0.30;;;;;;;24.82;35.64;96436.75;7392244;19;20689;-57
2024/03/29 08:09:19;;;;;;;0.50;0.47;;;;;;;26.06;34.17;96436.00;7391734;19;20014;-57
2024/03/29 08:11:45;;;;;;;0.70;0.70;;;;;;;26.43;33.98;96441.47;7392255;19;20017;-57
2024/03/29 08:14:11;;;;;;;4.68;0.40;;;;;;;26.79;33.46;96431.13;7391420;19;20015;-57
2024/03/29 08:16:38;;;;;;;0.30;0.30;;;;;;;26.31;33.87;96441.09;7395299;19;20040;-57
2024/03/29 08:19:04;;;;;;;0.20;0.20;;;;;;;26.46;34.21;96450.81;7390693;19;20007;-57
2024/03/29 08:21:30;;;;;;;4.32;1.23;;;;;;;27.15;33.38;96447.84;7391169;19;20019;-57
2024/03/29 08:23:56;;;;;;;0.30;0.30;;;;;;;26.50;34.12;96448.81;7395156;19;20086;-57
2024/03/29 08:26:23;;;;;;;0.10;0.10;;;;;;;26.22;33.85;96445.09;7387656;19;20471;-57
2024/03/29 08:28:49;;;;;;;0.32;0.30;;;;;;;26.84;33.32;96457.69;7391835;19;20407;-57
2024/03/29 08:31:15;;;;;;;1.70;0.47;;;;;;;27.62;32.76;96456.28;7390229;19;20361;-57
2024/03/29 08:33:43;;;;;;;0.47;0.47;;;;;;;28.14;32.24;96454.75;7393369;19;20007;-58
2024/03/29 08:36:10;;;;;;;2.47;0.65;;;;;;;29.27;30.92;96445.78;7393561;19;20026;-58
2024/03/29 08:38:41;;;;;;;0.68;0.40;;;;;;;29.78;31.01;96451.03;7397494;19;20018;-57
2024/03/29 08:41:07;;;;;;;0.43;0.43;;;;;;;30.14;30.40;96450.94;7395963;19;20063;-57
2024/03/29 08:43:34;;;;;;;1.70;0.43;;;;;;;30.03;30.35;96451.44;7395779;19;20010;-58
2024/03/29 08:46:00;;;;;;;0.45;0.40;;;;;;;30.10;30.15;96442.25;7397953;19;20351;-58
2024/03/29 08:48:27;;;;;;;0.20;0.20;;;;;;;30.54;29.89;96456.56;7400133;19;20021;-58
2024/03/29 08:50:53;;;;;;;1.85;0.43;;;;;;;29.81;30.32;96452.53;7401094;19;20359;-58
2024/03/29 08:53:21;;;;;;;0.30;0.20;;;;;;;29.31;31.04;96468.06;7396237;19;20501;-58
2024/03/29 08:55:50;;;;;;;0.28;0.20;;;;;;;29.33;30.99;96460.22;7397181;19;20010;-57
2024/03/29 08:58:18;;;;;;;0.20;0.20;;;;;;;29.03;31.28;96468.19;7401713;19;20006;-58
2024/03/29 09:00:54;;;;;;;2.70;0.57;;;;;;;28.66;31.50;96465.97;7396498;19;20015;-58
2024/03/29 09:03:20;;;;;;;0.30;0.22;;;;;;;28.09;32.39;96472.53;7396097;19;20011;-58
2024/03/29 09:05:46;;;;;;;2.40;0.75;;;;;;;28.00;32.38;96477.31;7394745;19;20010;-58
2024/03/29 09:08:12;;;;;;;6.60;0.55;;;;;;;27.91;33.11;96478.50;7398716;19;20011;-58
2024/03/29 09:10:38;;;;;;;2.65;0.30;;;;;;;27.41;33.38;96474.31;7396797;19;20014;-58
2024/03/29 09:13:07;;;;;;;0.28;0.28;;;;;;;27.73;32.79;96480.88;7394554;19;20332;-58
2024/03/29 09:15:33;;;;;;;3.45;0.80;;;;;;;28.08;32.58;96486.09;7394914;19;20021;-58
2024/03/29 09:18:03;;;;;;;0.57;0.28;;;;;;;27.55;33.04;96484.00;7396772;19;20443;-58
2024/03/29 09:20:29;;;;;;;0.90;0.60;;;;;;;29.39;31.09;96477.53;7397259;19;20078;-58
2024/03/29 09:22:55;;;;;;;0.35;0.13;;;;;;;30.03;30.98;96480.16;7394885;19;20408;-58
2024/03/29 09:25:21;;;;;;;4.60;1.10;;;;;;;30.54;30.51;96491.78;7395450;19;20018;-58
2024/03/29 09:27:48;;;;;;;0.25;0.15;;;;;;;30.80;30.41;96485.66;7400548;19;20032;-59
2024/03/29 09:30:15;;;;;;;1.45;0.50;;;;;;;30.65;29.78;96490.50;7395028;19;20387;-58
2024/03/29 09:32:41;;;;;;;0.57;0.57;;;;;;;30.80;30.04;96493.59;7396826;19;20044;-59
2024/03/29 09:35:07;;;;;;;2.47;0.75;;;;;;;30.88;30.14;96497.31;7394809;19;20392;-59
2024/03/29 09:37:37;;;;;;;0.32;0.32;;;;;;;30.90;29.89;96490.88;7396834;19;20010;-59
2024/03/29 09:40:04;;;;;;;0.85;0.55;;;;;;;30.92;30.19;96488.75;7396313;19;20030;-59
2024/03/29 09:42:33;;;;;;;0.68;0.57;;;;;;;31.19;29.77;96496.28;7396047;19;20017;-59
2024/03/29 09:45:03;;;;;;;0.22;0.20;;;;;;;32.03;29.28;96493.63;7393776;19;20352;-59
2024/03/29 09:47:30;;;;;;;1.17;0.30;;;;;;;32.57;28.94;96501.31;7393467;19;20033;-59
2024/03/29 09:49:58;;;;;;;1.40;0.47;;;;;;;32.54;29.21;96503.44;7396289;19;20007;-58
2024/03/29 09:52:25;;;;;;;1.10;0.40;;;;;;;33.09;28.59;96500.91;7395604;19;20017;-59
2024/03/29 09:54:52;;;;;;;0.63;0.63;;;;;;;33.11;28.81;96515.34;7396400;19;20015;-59
2024/03/29 09:57:18;;;;;;;0.52;0.25;;;;;;;33.33;28.45;96516.16;7396412;19;20010;-59
2024/03/29 09:59:44;;;;;;;0.20;0.10;;;;;;;33.11;28.90;96521.09;7393997;19;20011;-59
2024/03/29 10:02:20;;;;;;;0.57;0.28;;;;;;;33.84;28.17;96522.84;7394923;19;20018;-59
2024/03/29 10:04:51;;;;;;;0.35;0.30;;;;;;;33.18;28.49;96520.41;7396416;19;20074;-59
2024/03/29 10:07:18;;;;;;;0.63;0.60;;;;;;;33.37;28.46;96518.34;7393171;19;20028;-59
2024/03/29 10:09:44;;;;;;;0.30;0.30;;;;;;;32.68;29.15;96517.94;7393736;19;20098;-59
2024/03/29 10:12:10;;;;;;;0.40;0.17;;;;;;;32.97;28.73;96523.88;7394105;19;20010;-59
2024/03/29 10:14:51;;;;;;;0.40;0.30;;;;;;;32.94;28.95;96531.09;7393850;19;20031;-59
2024/03/29 10:17:18;;;;;;;;;;;;;;;33.26;28.35;96531.28;7396141;19;20021;-59
2024/03/29 10:19:45;;;;;;;1.45;0.63;;;;;;;33.58;28.06;96528.53;7395503;19;19923;-58
2024/03/29 10:22:12;;;;;;;0.85;0.32;;;;;;;33.40;27.87;96528.44;7393534;19;20014;-59
2024/03/29 10:24:38;;;;;;;3.30;0.32;;;;;;;34.05;27.95;96529.41;7394412;19;20003;-58
2024/03/29 10:27:05;;;;;;;0.13;0.13;;;;;;;34.61;27.33;96540.31;7394023;19;20013;-59
2024/03/29 10:29:31;;;;;;;0.20;0.20;;;;;;;34.70;27.45;96530.88;7396713;19;20019;-59
2024/03/29 10:31:57;;;;;;;0.20;0.17;;;;;;;35.18;27.05;96535.88;7393629;19;20010;-59
2024/03/29 10:34:27;;;;;;;0.38;0.17;;;;;;;35.11;27.09;96527.97;7393167;19;20018;-59
2024/03/29 10:36:53;;;;;;;0.10;0.10;;;;;;;35.18;26.94;96518.53;7394401;19;20010;-59
2024/03/29 10:39:20;;;;;;;0.17;0.17;;;;;;;34.88;26.49;96524.34;7391936;19;20022;-58
2024/03/29 10:41:47;;;;;;;5.75;0.60;;;;;;;34.67;27.26;96520.78;7397977;19;20015;-58
2024/03/29 10:44:14;;;;;;;0.10;0.10;;;;;;;34.89;26.90;96529.41;7394058;19;20023;-59
2024/03/29 10:46:41;;;;;;;6.15;0.40;;;;;;;34.85;26.71;96534.47;7393602;19;20006;-59
2024/03/29 10:49:11;;;;;;;3.80;0.98;;;;;;;34.88;26.73;96541.72;7395107;19;20480;-58
2024/03/29 10:51:41;;;;;;;2.75;0.95;;;;;;;34.67;27.32;96537.41;7396046;19;20013;-59
2024/03/29 10:54:12;;;;;;;1.75;0.57;;;;;;;35.27;27.17;96522.84;7397678;19;20022;-59
2024/03/29 10:56:42;;;;;;;2.85;1.05;;;;;;;35.67;26.69;96519.09;7393324;19;20010;-59
2024/03/29 10:59:34;;;;;;;3.20;0.55;;;;;;;35.57;26.27;96522.75;7396347;19;20144;-59
2024/03/29 11:02:00;;;;;;;7.40;0.80;;;;;;;35.46;26.56;96524.19;7393523;19;20030;-59
2024/03/29 11:04:34;;;;;;;4.63;0.98;;;;;;;35.60;26.39;96526.34;7397891;19;20014;-58
2024/03/29 11:07:06;;;;;;;3.55;0.55;;;;;;;35.37;26.32;96519.91;7391306;19;20023;-59
2024/03/29 11:09:35;;;;;;;0.10;0.10;;;;;;;35.56;26.20;96518.38;7392860;19;20011;-58
2024/03/29 11:12:02;;;;;;;7.55;1.77;;;;;;;35.42;25.70;96518.44;7392889;19;20015;-58
2024/03/29 11:14:42;;;;;;;0.85;0.68;;;;;;;35.27;25.51;96525.00;7392464;19;20017;-58
2024/03/29 11:17:09;;;;;;;0.93;0.47;;;;;;;35.28;25.68;96521.38;7393304;19;20069;-58
2024/03/29 11:19:36;;;;;;;1.25;0.40;;;;;;;35.31;25.46;96505.44;7392821;19;20018;-58
2024/03/29 11:22:03;;;;;;;0.43;0.15;;;;;;;34.92;25.51;96501.94;7396816;19;20801;-58
2024/03/29 11:24:31;;;;;;;0.60;0.30;;;;;;;34.68;26.00;96504.16;7392388;19;20482;-58
2024/03/29 11:26:57;;;;;;;0.73;0.52;;;;;;;34.90;25.74;96501.94;7391373;19;20019;-58
2024/03/29 11:29:24;;;;;;;10.50;0.50;;;;;;;34.93;25.82;96505.56;7392724;19;20015;-58
2024/03/29 11:31:57;;;;;;;0.10;0.10;;;;;;;35.00;25.19;96539.53;7392385;19;20074;-58
2024/03/29 11:34:24;;;;;;;0.38;0.38;;;;;;;33.93;25.73;96553.19;7392997;19;20074;-58
2024/03/29 11:36:50;;;;;;;0.47;0.40;;;;;;;33.71;25.78;96567.56;7396803;19;20047;-59
2024/03/29 11:39:23;;;;;;;1.50;0.68;;;;;;;34.75;24.94;96558.34;7392864;19;20092;-58
2024/03/29 11:41:50;;;;;;;0.10;0.10;;;;;;;35.19;25.32;96554.69;7393057;19;20673;-58
2024/03/29 11:44:16;;;;;;;0.10;0.00;;;;;;;35.45;25.33;96545.94;7392724;19;20046;-58